Time;durP1;ratioP1;P1;durP2;ratioP2;P2;SDS_P1;SDS_P2;PMS_P1;PMS_P2;Temp;Humidity;BMP_temperature;BMP_pressure;BME280_temperature;BME280_humidity;BME280_pressure;Samples;Min_cycle;Max_cycle;Signal;HPM_P1;HPM_P2
2022/01/08 00:01:31;;;;;;;42.13;22.63;;;20.60;96.40;;;;;;4180693;28;20045;-65
2022/01/08 00:03:35;;;;;;;52.28;21.77;;;20.60;96.70;;;;;;4180903;28;20128;-65
2022/01/08 00:05:40;;;;;;;65.20;22.52;;;20.50;96.90;;;;;;4185983;28;20447;-65
2022/01/08 00:07:45;;;;;;;55.72;20.58;;;20.50;97.00;;;;;;4179411;28;20128;-65
2022/01/08 00:09:50;;;;;;;42.67;22.20;;;20.40;97.30;;;;;;4181110;28;20049;-66
2022/01/08 00:11:56;;;;;;;43.92;25.05;;;20.60;97.10;;;;;;4180992;28;20067;-65
2022/01/08 00:14:04;;;;;;;39.55;27.02;;;20.60;97.10;;;;;;4180135;28;20278;-65
2022/01/08 00:16:09;;;;;;;38.47;26.45;;;20.60;97.00;;;;;;4180539;28;20045;-66
2022/01/08 00:18:13;;;;;;;42.30;26.35;;;20.50;97.20;;;;;;4162326;28;20046;-66
2022/01/08 00:20:18;;;;;;;44.03;24.60;;;20.40;97.50;;;;;;4180742;28;20045;-66
2022/01/08 00:22:23;;;;;;;45.25;24.95;;;20.50;97.50;;;;;;4179386;28;20087;-66
2022/01/08 00:24:27;;;;;;;39.80;23.58;;;20.60;97.40;;;;;;4179836;28;20130;-66
2022/01/08 00:26:32;;;;;;;42.45;23.17;;;20.50;97.50;;;;;;4180381;28;20080;-66
2022/01/08 00:28:37;;;;;;;40.10;23.05;;;20.70;97.20;;;;;;4179255;28;20045;-65
2022/01/08 00:30:42;;;;;;;33.60;24.08;;;20.70;97.20;;;;;;4177298;28;20081;-65
2022/01/08 00:32:47;;;;;;;37.63;22.77;;;20.90;96.90;;;;;;4173457;28;20065;-62
2022/01/08 00:34:51;;;;;;;42.20;24.20;;;20.90;96.80;;;;;;4174208;28;20569;-65
2022/01/08 00:36:56;;;;;;;45.35;25.30;;;20.90;96.80;;;;;;4171830;28;20111;-65
2022/01/08 00:39:00;;;;;;;39.55;24.30;;;21.00;96.60;;;;;;4171638;28;20046;-66
2022/01/08 00:41:05;;;;;;;43.20;25.85;;;21.10;96.40;;;;;;4171612;28;20107;-66
2022/01/08 00:43:10;;;;;;;53.25;26.20;;;21.10;96.40;;;;;;4172123;28;20061;-65
2022/01/08 00:45:15;;;;;;;46.53;26.73;;;21.00;96.60;;;;;;4176610;28;20458;-66
2022/01/08 00:47:19;;;;;;;42.35;26.80;;;21.10;96.50;;;;;;4171101;28;20048;-65
2022/01/08 00:49:25;;;;;;;43.60;27.50;;;21.10;96.50;;;;;;4171957;28;20044;-65
2022/01/08 00:51:30;;;;;;;53.53;28.00;;;21.10;96.80;;;;;;4171972;28;20136;-65
2022/01/08 00:53:35;;;;;;;43.45;26.27;;;21.20;96.70;;;;;;4171480;28;20422;-65
2022/01/08 00:55:40;;;;;;;45.72;26.35;;;21.30;96.50;;;;;;4174892;28;20048;-64
2022/01/08 00:57:44;;;;;;;38.42;25.00;;;21.30;96.50;;;;;;4173409;28;20419;-65
2022/01/08 00:59:49;;;;;;;40.03;21.75;;;21.50;96.30;;;;;;4171669;28;20124;-65
2022/01/08 01:01:53;;;;;;;38.63;19.50;;;21.50;95.70;;;;;;4171844;28;20061;-64
2022/01/08 01:03:58;;;;;;;35.60;20.38;;;21.60;95.10;;;;;;4176537;28;20036;-65
2022/01/08 01:06:04;;;;;;;31.05;18.58;;;21.60;95.20;;;;;;4174020;28;20049;-65
2022/01/08 01:08:09;;;;;;;35.83;21.08;;;21.70;94.40;;;;;;4171331;28;20068;-65
2022/01/08 01:10:17;;;;;;;35.40;20.42;;;21.70;94.40;;;;;;4171032;28;20087;-64
2022/01/08 01:12:22;;;;;;;32.00;20.58;;;21.70;94.40;;;;;;4171046;28;20041;-65
2022/01/08 01:14:42;;;;;;;33.67;20.25;;;21.70;94.10;;;;;;4172504;28;20045;-65
2022/01/08 01:16:47;;;;;;;34.92;21.83;;;21.70;94.20;;;;;;4170794;28;20029;-66
2022/01/08 01:18:55;;;;;;;35.03;21.80;;;21.80;94.30;;;;;;4177186;28;20052;-64
2022/01/08 01:21:07;;;;;;;35.47;22.45;;;21.80;94.20;;;;;;4171157;28;20049;-65
2022/01/08 01:23:15;;;;;;;33.88;22.48;;;21.80;94.20;;;;;;4173983;28;20432;-65
2022/01/08 01:25:27;;;;;;;35.70;21.38;;;21.90;94.20;;;;;;4171114;28;20073;-65
2022/01/08 01:48:24;;;;;;;27.67;15.40;;;22.40;93.30;;;;;;4175742;28;20025;-65
2022/01/08 01:50:34;;;;;;;28.80;16.02;;;22.50;93.20;;;;;;4170882;28;20156;-66
2022/01/08 01:52:38;;;;;;;34.08;18.02;;;22.50;93.10;;;;;;4173355;28;20079;-65
2022/01/08 01:54:43;;;;;;;43.42;16.45;;;22.50;93.10;;;;;;4186056;28;20154;-66
2022/01/08 01:56:52;;;;;;;22.27;13.70;;;22.50;93.00;;;;;;4171140;28;20033;-69
2022/01/08 01:58:57;;;;;;;22.20;13.70;;;22.50;92.70;;;;;;4172932;28;20132;-64
2022/01/08 02:01:03;;;;;;;24.58;13.30;;;22.60;92.60;;;;;;4170450;28;20164;-64
2022/01/08 02:03:08;;;;;;;22.33;13.65;;;22.70;92.60;;;;;;4185501;28;20474;-66
2022/01/08 02:05:13;;;;;;;25.30;13.70;;;22.70;92.40;;;;;;4170192;28;20053;-64
2022/01/08 02:07:17;;;;;;;23.10;13.40;;;22.70;92.30;;;;;;4170138;28;20049;-65
2022/01/08 02:09:22;;;;;;;20.98;13.30;;;22.70;92.20;;;;;;4172800;28;20515;-65
2022/01/08 02:11:27;;;;;;;22.67;13.82;;;22.70;92.40;;;;;;4174337;28;20068;-65
2022/01/08 02:13:32;;;;;;;20.42;13.48;;;22.70;92.20;;;;;;4174220;28;20399;-64
2022/01/08 02:15:37;;;;;;;27.27;13.65;;;22.70;92.30;;;;;;4170854;28;20416;-65
2022/01/08 02:17:42;;;;;;;25.60;13.05;;;22.80;92.30;;;;;;4170316;28;20720;-65
2022/01/08 02:19:46;;;;;;;22.15;13.65;;;22.90;92.20;;;;;;4173506;28;20136;-65
2022/01/08 02:21:53;;;;;;;21.40;13.25;;;23.00;92.10;;;;;;4173025;28;20128;-65
2022/01/08 02:23:58;;;;;;;22.83;14.57;;;23.00;91.90;;;;;;4169771;28;20088;-64
2022/01/08 02:26:04;;;;;;;23.95;14.18;;;23.00;91.80;;;;;;4170435;28;20461;-64
2022/01/08 02:28:09;;;;;;;32.00;18.23;;;23.00;91.80;;;;;;4170341;28;20083;-65
2022/01/08 02:30:13;;;;;;;28.67;16.60;;;23.00;92.00;;;;;;4172777;28;20052;-65
2022/01/08 02:32:19;;;;;;;31.02;16.63;;;23.10;91.90;;;;;;4170123;28;20071;-65
2022/01/08 02:34:25;;;;;;;32.85;17.63;;;23.10;91.70;;;;;;4170648;28;20399;-65
2022/01/08 02:36:30;;;;;;;51.83;19.52;;;23.20;91.70;;;;;;4170180;28;20034;-64
2022/01/08 02:38:34;;;;;;;36.97;18.42;;;23.30;91.80;;;;;;4170841;28;20091;-64
2022/01/08 02:40:49;;;;;;;27.75;16.63;;;23.30;91.50;;;;;;4172103;28;20055;-63
2022/01/08 02:43:00;;;;;;;27.45;17.30;;;23.20;91.40;;;;;;4174889;28;20048;-64
2022/01/08 02:45:05;;;;;;;24.00;15.80;;;23.30;92.00;;;;;;4193153;28;20106;-65
2022/01/08 02:47:13;;;;;;;21.58;13.65;;;23.30;91.70;;;;;;4170445;28;20088;-65
2022/01/08 02:49:17;;;;;;;24.63;12.00;;;23.40;91.40;;;;;;4170382;28;20427;-63
2022/01/08 02:51:22;;;;;;;21.27;11.57;;;23.50;91.10;;;;;;4172354;28;20087;-65
2022/01/08 02:53:27;;;;;;;17.48;11.15;;;23.50;91.40;;;;;;4170238;28;20514;-64
2022/01/08 02:55:33;;;;;;;21.15;10.50;;;23.60;91.00;;;;;;4170150;28;20083;-65
2022/01/08 02:57:38;;;;;;;18.63;10.88;;;23.60;90.80;;;;;;4170433;28;20614;-64
2022/01/08 02:59:43;;;;;;;18.83;10.43;;;23.70;90.90;;;;;;4169849;28;20140;-66
2022/01/08 03:01:48;;;;;;;18.83;10.30;;;23.70;90.70;;;;;;4174398;28;20500;-65
2022/01/08 03:03:56;;;;;;;16.48;10.23;;;23.80;90.70;;;;;;4173126;28;20123;-63
2022/01/08 03:06:03;;;;;;;16.23;10.43;;;23.80;90.50;;;;;;4173306;28;20053;-64
2022/01/08 03:08:07;;;;;;;18.75;10.55;;;23.80;90.50;;;;;;4169705;28;20042;-65
2022/01/08 03:10:15;;;;;;;18.45;10.38;;;23.80;90.30;;;;;;4173741;28;20077;-65
2022/01/08 03:12:21;;;;;;;14.75;10.35;;;23.90;90.30;;;;;;4172945;28;20037;-65
2022/01/08 03:14:26;;;;;;;20.48;11.02;;;23.90;90.00;;;;;;4175848;28;20050;-66
2022/01/08 03:16:30;;;;;;;18.27;10.50;;;24.00;90.10;;;;;;4177771;28;20045;-65
2022/01/08 03:18:37;;;;;;;20.33;10.18;;;24.10;90.00;;;;;;4171356;28;20416;-66
2022/01/08 03:20:49;;;;;;;18.15;9.98;;;24.10;89.80;;;;;;4174621;28;20056;-65
2022/01/08 03:23:02;;;;;;;13.95;9.68;;;24.20;89.60;;;;;;4175888;28;20399;-64
2022/01/08 03:25:07;;;;;;;18.67;10.57;;;24.20;89.20;;;;;;4173019;28;20049;-65
2022/01/08 03:27:12;;;;;;;17.13;10.07;;;24.30;89.00;;;;;;4172814;28;20056;-65
2022/01/08 03:29:16;;;;;;;21.73;9.75;;;24.30;89.00;;;;;;4173084;28;20412;-65
2022/01/08 03:31:21;;;;;;;19.92;9.68;;;24.30;88.50;;;;;;4172720;28;20041;-65
2022/01/08 03:33:26;;;;;;;17.27;10.43;;;24.40;88.70;;;;;;4175044;28;20033;-65
2022/01/08 03:35:30;;;;;;;19.73;10.82;;;24.40;88.60;;;;;;4173824;28;20358;-65
2022/01/08 03:37:36;;;;;;;21.95;12.82;;;24.50;88.70;;;;;;4170215;28;20128;-65
2022/01/08 03:39:41;;;;;;;17.27;11.40;;;24.50;88.30;;;;;;4165001;28;20081;-65
2022/01/08 03:41:45;;;;;;;18.45;12.20;;;24.60;88.30;;;;;;4164261;28;20064;-65
2022/01/08 03:43:50;;;;;;;19.55;11.63;;;24.60;88.40;;;;;;4173493;28;20524;-64
2022/01/08 03:45:55;;;;;;;22.40;11.80;;;24.60;88.00;;;;;;4173061;28;20520;-66
2022/01/08 03:50:14;;;;;;;18.38;11.82;;;24.80;87.40;;;;;;4173347;28;20404;-66
2022/01/08 03:52:18;;;;;;;18.25;10.95;;;24.80;86.60;;;;;;4172875;28;20037;-67
2022/01/08 03:54:23;;;;;;;18.73;10.65;;;24.80;87.40;;;;;;4174255;28;20400;-66
2022/01/08 03:56:28;;;;;;;21.42;11.00;;;24.90;87.60;;;;;;4167368;28;20089;-64
2022/01/08 03:58:33;;;;;;;17.83;10.20;;;24.90;86.70;;;;;;4168819;28;20048;-66
2022/01/08 04:00:37;;;;;;;16.75;10.30;;;25.10;86.00;;;;;;4175075;28;20506;-64
2022/01/08 04:02:42;;;;;;;18.58;9.93;;;25.10;85.90;;;;;;4176566;28;20065;-64
2022/01/08 04:04:48;;;;;;;17.80;8.98;;;25.10;84.60;;;;;;4177472;28;20041;-64
2022/01/08 04:06:52;;;;;;;16.50;9.38;;;25.10;83.10;;;;;;4167727;28;20470;-65
2022/01/08 04:08:58;;;;;;;14.98;8.93;;;25.20;82.80;;;;;;4175001;28;20045;-65
2022/01/08 04:11:02;;;;;;;15.75;9.38;;;25.20;83.50;;;;;;4178180;28;20373;-66
2022/01/08 04:13:12;;;;;;;13.40;9.32;;;25.20;83.50;;;;;;4195919;28;20072;-66
2022/01/08 04:17:28;;;;;;;20.25;9.40;;;25.30;84.20;;;;;;4176251;28;20049;-67
2022/01/08 04:19:32;;;;;;;15.88;8.95;;;25.30;84.50;;;;;;4179587;28;20491;-64
2022/01/08 04:23:42;;;;;;;13.98;8.48;;;25.50;82.80;;;;;;4179757;28;20072;-65
2022/01/08 04:25:46;;;;;;;18.80;9.25;;;25.50;82.70;;;;;;4176986;28;20053;-65
2022/01/08 04:27:51;;;;;;;21.17;9.90;;;25.60;83.20;;;;;;4179064;28;20094;-65
2022/01/08 04:29:56;;;;;;;18.95;9.80;;;25.60;84.00;;;;;;4179510;28;20106;-64
2022/01/08 04:32:00;;;;;;;24.08;9.88;;;25.70;83.10;;;;;;4177702;28;20443;-64
2022/01/08 04:34:05;;;;;;;21.00;10.57;;;25.70;83.50;;;;;;4179513;28;20045;-65
2022/01/08 04:36:10;;;;;;;19.15;10.65;;;25.80;83.80;;;;;;4175678;28;20052;-64
2022/01/08 04:38:14;;;;;;;16.27;9.20;;;25.90;83.00;;;;;;4171735;28;20103;-65
2022/01/08 04:40:18;;;;;;;20.20;8.05;;;25.90;82.50;;;;;;4171207;28;20045;-65
2022/01/08 04:42:23;;;;;;;14.90;8.57;;;25.90;81.40;;;;;;4173389;28;20558;-65
2022/01/08 04:44:28;;;;;;;15.93;8.65;;;26.00;80.70;;;;;;4180281;28;20515;-64
2022/01/08 04:46:33;;;;;;;17.17;9.63;;;26.00;80.90;;;;;;4179817;28;20048;-64
2022/01/08 04:48:37;;;;;;;15.63;9.50;;;26.00;80.60;;;;;;4174279;28;20049;-64
2022/01/08 04:50:41;;;;;;;19.15;8.57;;;26.00;81.10;;;;;;4163573;28;20041;-65
2022/01/08 04:52:46;;;;;;;19.65;11.75;;;26.20;80.70;;;;;;4174025;28;20041;-65
2022/01/08 04:54:50;;;;;;;17.17;10.77;;;26.20;79.50;;;;;;4168220;28;20049;-64
2022/01/08 04:56:55;;;;;;;14.80;9.60;;;26.20;79.00;;;;;;4170046;28;20132;-64
2022/01/08 04:58:59;;;;;;;14.55;9.00;;;26.20;79.30;;;;;;4163549;28;20045;-65
2022/01/08 05:01:03;;;;;;;18.30;8.90;;;26.30;79.30;;;;;;4163422;28;20395;-65
2022/01/08 05:03:08;;;;;;;16.63;9.75;;;26.30;79.10;;;;;;4163751;28;20053;-65
2022/01/08 05:05:13;;;;;;;17.95;9.80;;;26.40;78.60;;;;;;4165177;28;20503;-65
2022/01/08 05:07:17;;;;;;;17.98;9.18;;;26.40;78.70;;;;;;4174154;28;20060;-65
2022/01/08 05:09:22;;;;;;;15.57;9.65;;;26.40;78.90;;;;;;4164846;28;20064;-65
2022/01/08 05:11:27;;;;;;;15.18;8.35;;;26.40;78.60;;;;;;4171070;28;20042;-65
2022/01/08 05:13:31;;;;;;;15.23;8.50;;;26.40;78.70;;;;;;4171310;28;20037;-65
2022/01/08 05:15:35;;;;;;;16.70;7.95;;;26.50;79.60;;;;;;4171132;28;20499;-65
2022/01/08 05:17:42;;;;;;;21.45;8.95;;;26.60;79.10;;;;;;4178867;28;20056;-65
2022/01/08 05:19:50;;;;;;;13.73;8.27;;;26.60;79.00;;;;;;4173927;28;20045;-65
2022/01/08 05:21:58;;;;;;;16.67;8.95;;;26.60;78.50;;;;;;4174360;28;20287;-65
2022/01/08 05:24:02;;;;;;;18.10;9.23;;;26.60;78.80;;;;;;4176135;28;20080;-65
2022/01/08 05:26:06;;;;;;;13.90;8.35;;;26.70;78.60;;;;;;4173164;28;20049;-65
2022/01/08 05:28:11;;;;;;;15.80;8.60;;;26.70;78.30;;;;;;4177862;28;20049;-65
2022/01/08 05:30:18;;;;;;;14.23;8.43;;;26.80;78.10;;;;;;4174495;28;20045;-65
2022/01/08 05:32:22;;;;;;;12.68;8.02;;;26.80;78.30;;;;;;4171178;28;20041;-65
2022/01/08 05:34:30;;;;;;;14.40;8.18;;;26.90;77.60;;;;;;4174216;28;20037;-65
2022/01/08 05:36:35;;;;;;;16.15;8.43;;;26.90;77.70;;;;;;4177857;28;20033;-66
2022/01/08 05:38:45;;;;;;;15.35;7.78;;;27.00;77.40;;;;;;4177092;28;20053;-66
2022/01/08 05:40:50;;;;;;;13.32;8.10;;;27.00;76.50;;;;;;4178163;28;20033;-66
2022/01/08 05:42:54;;;;;;;17.50;7.95;;;27.00;76.20;;;;;;4177686;28;20041;-65
2022/01/08 05:44:59;;;;;;;11.75;7.40;;;27.00;76.60;;;;;;4178167;28;20565;-64
2022/01/08 05:47:08;;;;;;;10.90;7.05;;;27.00;76.50;;;;;;4178334;28;20446;-66
2022/01/08 05:49:14;;;;;;;15.57;8.32;;;27.10;77.30;;;;;;4178323;28;20493;-66
2022/01/08 05:51:20;;;;;;;16.08;7.93;;;27.20;76.70;;;;;;4178366;28;20049;-66
2022/01/08 05:53:24;;;;;;;13.30;7.45;;;27.30;75.40;;;;;;4178168;28;20127;-65
2022/01/08 05:55:29;;;;;;;17.00;8.43;;;27.30;75.60;;;;;;4175720;28;20045;-65
2022/01/08 05:57:34;;;;;;;16.02;8.27;;;27.40;76.80;;;;;;4175320;28;20106;-64
2022/01/08 05:59:39;;;;;;;14.23;8.05;;;27.40;75.50;;;;;;4163459;28;20045;-64
2022/01/08 06:01:43;;;;;;;12.15;7.75;;;27.40;75.50;;;;;;4176862;28;20043;-64
2022/01/08 06:03:48;;;;;;;16.27;7.32;;;27.40;73.90;;;;;;4175789;28;20041;-64
2022/01/08 06:05:53;;;;;;;12.60;7.50;;;27.40;74.40;;;;;;4177656;28;20076;-64
2022/01/08 06:07:58;;;;;;;13.85;8.15;;;27.40;74.50;;;;;;4177721;28;20049;-65
2022/01/08 06:10:03;;;;;;;11.75;8.13;;;27.40;74.00;;;;;;4176872;28;20128;-65
2022/01/08 06:12:09;;;;;;;14.52;8.73;;;27.40;74.20;;;;;;4176117;28;20098;-65
2022/01/08 06:14:14;;;;;;;13.02;8.10;;;27.50;73.60;;;;;;4177438;28;20524;-65
2022/01/08 06:16:19;;;;;;;13.90;8.57;;;27.50;73.00;;;;;;4177752;28;20045;-65
2022/01/08 06:18:23;;;;;;;15.30;8.35;;;27.60;73.60;;;;;;4177877;28;20043;-63
2022/01/08 06:20:28;;;;;;;13.27;8.23;;;27.60;73.60;;;;;;4172338;28;20306;-65
2022/01/08 06:22:35;;;;;;;13.85;7.63;;;27.50;71.80;;;;;;4175787;28;20045;-63
2022/01/08 06:24:39;;;;;;;14.15;7.55;;;27.60;72.20;;;;;;4175079;28;20465;-65
2022/01/08 06:26:45;;;;;;;12.00;7.57;;;27.60;72.40;;;;;;4171186;28;20052;-66
2022/01/08 06:28:51;;;;;;;10.48;7.32;;;27.60;73.50;;;;;;4175249;28;20041;-64
2022/01/08 06:30:56;;;;;;;13.25;7.55;;;27.60;73.20;;;;;;4173804;28;20389;-65
2022/01/08 06:33:00;;;;;;;10.10;6.90;;;27.80;72.70;;;;;;4163993;28;20119;-65
2022/01/08 06:35:05;;;;;;;10.25;6.93;;;27.80;71.60;;;;;;4172171;28;20057;-66
2022/01/08 06:37:10;;;;;;;17.08;7.57;;;27.80;71.50;;;;;;4168794;28;20056;-65
2022/01/08 06:39:15;;;;;;;12.43;8.25;;;27.90;71.50;;;;;;4167709;28;20530;-64
2022/01/08 06:41:20;;;;;;;11.60;7.00;;;27.80;71.60;;;;;;4167636;28;20079;-65
2022/01/08 06:43:24;;;;;;;11.70;7.38;;;27.90;71.90;;;;;;4167679;28;20523;-65
2022/01/08 06:45:29;;;;;;;11.77;7.00;;;27.90;72.30;;;;;;4170217;28;20046;-65
2022/01/08 06:47:33;;;;;;;14.00;7.65;;;27.90;72.00;;;;;;4168084;28;20156;-66
2022/01/08 06:49:38;;;;;;;11.27;7.18;;;27.90;72.10;;;;;;4167850;28;20032;-66
2022/01/08 06:51:42;;;;;;;11.20;7.75;;;27.90;71.90;;;;;;4167249;28;20033;-64
2022/01/08 06:53:47;;;;;;;14.10;6.97;;;28.00;71.80;;;;;;4167422;28;20041;-64
2022/01/08 06:55:51;;;;;;;12.10;7.40;;;27.90;71.80;;;;;;4170926;28;20837;-65
2022/01/08 06:57:56;;;;;;;12.23;7.80;;;28.00;71.90;;;;;;4167412;28;20063;-64
2022/01/08 07:00:02;;;;;;;10.43;7.38;;;28.00;71.80;;;;;;4173287;28;20056;-64
2022/01/08 07:02:08;;;;;;;11.57;7.50;;;28.00;70.90;;;;;;4171504;28;20051;-64
2022/01/08 07:04:12;;;;;;;12.20;7.72;;;28.00;71.00;;;;;;4170503;28;20478;-64
2022/01/08 07:06:17;;;;;;;12.40;7.07;;;28.00;71.50;;;;;;4171665;28;20465;-64
2022/01/08 07:08:23;;;;;;;19.13;8.20;;;28.00;71.50;;;;;;4171190;28;20049;-66
2022/01/08 07:10:28;;;;;;;19.42;9.63;;;28.00;71.90;;;;;;4167562;28;20555;-65
2022/01/08 07:12:32;;;;;;;14.90;8.38;;;28.10;71.60;;;;;;4167866;28;20041;-65
2022/01/08 07:14:37;;;;;;;16.88;8.07;;;28.10;71.30;;;;;;4167164;28;20437;-65
2022/01/08 07:16:44;;;;;;;14.77;7.32;;;28.10;71.40;;;;;;4171501;28;20087;-66
2022/01/08 07:18:48;;;;;;;14.63;7.45;;;28.20;71.50;;;;;;4170444;28;20029;-66
2022/01/08 07:20:54;;;;;;;13.65;6.50;;;28.20;70.90;;;;;;4169395;28;20045;-66
2022/01/08 07:22:59;;;;;;;14.70;7.20;;;28.20;69.80;;;;;;4169813;28;20057;-66
2022/01/08 07:25:04;;;;;;;14.23;6.57;;;28.20;70.40;;;;;;4169376;28;20057;-66
2022/01/08 07:27:10;;;;;;;13.00;6.85;;;28.20;71.00;;;;;;4170541;28;20487;-65
2022/01/08 07:29:16;;;;;;;10.30;7.07;;;28.30;70.60;;;;;;4171972;28;20400;-66
2022/01/08 07:31:22;;;;;;;10.27;6.53;;;28.40;69.30;;;;;;4176263;28;20124;-66
2022/01/08 07:33:26;;;;;;;15.57;6.90;;;28.40;68.30;;;;;;4169608;28;20053;-66
2022/01/08 07:35:31;;;;;;;11.18;6.80;;;28.40;69.40;;;;;;4169618;28;20090;-66
2022/01/08 07:37:35;;;;;;;13.05;7.10;;;28.40;69.40;;;;;;4174438;28;20057;-66
2022/01/08 07:39:40;;;;;;;14.30;7.22;;;28.30;68.70;;;;;;4169558;28;20044;-66
2022/01/08 07:41:44;;;;;;;16.45;7.35;;;28.30;68.70;;;;;;4169300;28;20499;-66
2022/01/08 07:43:56;;;;;;;11.88;7.70;;;28.30;68.70;;;;;;4170106;28;20072;-66
2022/01/08 07:46:01;;;;;;;10.57;8.00;;;28.30;69.40;;;;;;4170593;28;20140;-66
2022/01/08 07:48:05;;;;;;;14.98;7.65;;;28.40;69.50;;;;;;4174335;28;20075;-66
2022/01/08 07:50:11;;;;;;;15.05;7.45;;;28.40;69.20;;;;;;4174594;28;20052;-65
2022/01/08 07:52:16;;;;;;;15.00;6.95;;;28.40;69.80;;;;;;4173143;28;20045;-66
2022/01/08 07:54:21;;;;;;;9.98;7.15;;;28.40;68.60;;;;;;4172657;28;20499;-66
2022/01/08 07:56:25;;;;;;;11.27;7.03;;;28.40;69.00;;;;;;4172292;28;20203;-66
2022/01/08 07:58:30;;;;;;;10.43;7.07;;;28.40;69.80;;;;;;4174573;28;20071;-66
2022/01/08 08:00:34;;;;;;;13.88;7.70;;;28.40;70.50;;;;;;4172569;28;20038;-66
2022/01/08 08:02:38;;;;;;;13.35;7.20;;;28.40;70.90;;;;;;4172271;28;20103;-66
2022/01/08 08:04:43;;;;;;;13.00;6.85;;;28.50;70.90;;;;;;4179909;28;20423;-66
2022/01/08 08:06:48;;;;;;;15.43;7.20;;;28.50;70.10;;;;;;4174200;28;20147;-66
2022/01/08 08:08:52;;;;;;;15.30;8.35;;;28.50;69.60;;;;;;4175596;28;20072;-65
2022/01/08 08:10:57;;;;;;;15.55;8.10;;;28.50;68.30;;;;;;4170169;28;20049;-65
2022/01/08 08:13:02;;;;;;;12.98;7.55;;;28.50;68.40;;;;;;4175071;28;20571;-64
2022/01/08 08:15:07;;;;;;;14.68;7.65;;;28.50;68.30;;;;;;4172603;28;20071;-64
2022/01/08 08:17:11;;;;;;;11.35;7.57;;;28.50;67.90;;;;;;4171985;28;20041;-64
2022/01/08 08:19:16;;;;;;;11.23;7.57;;;28.50;68.10;;;;;;4173474;28;20033;-64
2022/01/08 08:21:20;;;;;;;13.93;7.72;;;28.50;68.30;;;;;;4170584;28;20526;-64
2022/01/08 08:23:24;;;;;;;11.48;7.15;;;28.50;67.80;;;;;;4177761;28;20530;-65
2022/01/08 08:25:29;;;;;;;15.32;7.30;;;28.50;68.10;;;;;;4173171;28;20056;-65
2022/01/08 08:27:33;;;;;;;13.45;8.20;;;28.60;69.00;;;;;;4172365;28;20059;-65
2022/01/08 08:29:40;;;;;;;11.52;7.30;;;28.60;67.80;;;;;;4171994;28;20065;-65
2022/01/08 08:31:44;;;;;;;12.38;7.72;;;28.80;67.70;;;;;;4169972;28;20053;-65
2022/01/08 08:33:49;;;;;;;13.15;7.90;;;28.70;67.40;;;;;;4171291;28;20476;-65
2022/01/08 08:35:53;;;;;;;16.38;7.88;;;28.70;67.60;;;;;;4170955;28;20439;-65
2022/01/08 08:37:58;;;;;;;13.48;7.68;;;28.70;67.80;;;;;;4171496;28;20048;-65
2022/01/08 08:40:04;;;;;;;16.23;8.63;;;28.60;68.40;;;;;;4172396;28;20052;-65
2022/01/08 08:42:08;;;;;;;13.23;7.75;;;28.70;68.20;;;;;;4170311;28;20558;-65
2022/01/08 08:44:12;;;;;;;12.95;7.78;;;28.70;66.90;;;;;;4177079;28;20045;-65
2022/01/08 08:46:17;;;;;;;11.63;7.90;;;28.70;67.00;;;;;;4174385;28;20067;-65
2022/01/08 08:48:21;;;;;;;15.10;8.05;;;28.60;68.00;;;;;;4171657;28;20094;-62
2022/01/08 08:50:25;;;;;;;18.45;8.63;;;28.50;68.10;;;;;;4173552;28;20103;-64
2022/01/08 08:52:30;;;;;;;18.83;8.40;;;28.50;68.40;;;;;;4171320;28;20037;-65
2022/01/08 08:54:34;;;;;;;27.67;18.75;;;28.50;68.00;;;;;;4177102;28;20043;-65
2022/01/08 08:56:39;;;;;;;17.23;12.13;;;28.50;68.40;;;;;;4174230;28;20041;-65
2022/01/08 08:58:43;;;;;;;12.05;8.63;;;28.50;68.20;;;;;;4171631;28;20111;-64
2022/01/08 09:00:48;;;;;;;14.73;7.45;;;28.50;68.20;;;;;;4171600;28;20068;-64
2022/01/08 09:02:55;;;;;;;14.50;7.07;;;28.50;67.80;;;;;;4171758;28;20081;-65
2022/01/08 09:04:59;;;;;;;11.25;6.10;;;28.60;67.60;;;;;;4171952;28;20056;-65
2022/01/08 09:07:05;;;;;;;12.13;6.57;;;28.70;66.60;;;;;;4171513;28;20049;-65
2022/01/08 09:09:10;;;;;;;10.68;6.82;;;28.80;66.80;;;;;;4171404;28;20123;-64
2022/01/08 09:11:14;;;;;;;13.20;7.20;;;28.90;66.00;;;;;;4171781;28;20056;-64
2022/01/08 09:13:20;;;;;;;10.20;7.10;;;28.80;66.30;;;;;;4171605;28;20520;-64
2022/01/08 09:15:26;;;;;;;16.35;8.55;;;28.70;67.10;;;;;;4171195;28;20515;-64
2022/01/08 09:17:30;;;;;;;14.07;6.50;;;28.60;67.20;;;;;;4173948;28;20068;-64
2022/01/08 09:19:35;;;;;;;11.43;7.38;;;28.60;66.80;;;;;;4171254;28;20042;-64
2022/01/08 09:21:40;;;;;;;11.57;6.88;;;28.60;66.20;;;;;;4178259;28;20041;-64
2022/01/08 09:23:45;;;;;;;12.18;7.60;;;28.60;67.00;;;;;;4174022;28;20068;-64
2022/01/08 09:25:49;;;;;;;18.75;11.70;;;28.60;67.60;;;;;;4169294;28;20088;-64
2022/01/08 09:27:53;;;;;;;17.85;10.00;;;28.70;67.70;;;;;;4172560;28;20531;-64
2022/01/08 09:29:58;;;;;;;13.02;7.90;;;28.70;67.80;;;;;;4175917;28;20065;-64
2022/01/08 09:32:08;;;;;;;17.92;8.63;;;28.70;67.50;;;;;;4173759;28;20040;-64
2022/01/08 09:34:19;;;;;;;12.45;8.10;;;28.60;68.20;;;;;;4170885;28;20443;-63
2022/01/08 09:36:24;;;;;;;10.85;6.93;;;28.50;67.80;;;;;;4175809;28;20041;-65
2022/01/08 09:38:28;;;;;;;12.35;7.45;;;28.50;68.10;;;;;;4170857;28;20050;-64
2022/01/08 09:40:33;;;;;;;19.35;7.80;;;28.40;67.90;;;;;;4170864;28;20041;-62
2022/01/08 09:42:37;;;;;;;11.52;7.10;;;28.40;68.00;;;;;;4172972;28;20048;-64
2022/01/08 09:44:44;;;;;;;14.35;7.18;;;28.30;68.10;;;;;;4172303;28;20466;-64
2022/01/08 09:46:49;;;;;;;14.77;7.65;;;28.30;68.50;;;;;;4173238;28;20500;-65
2022/01/08 09:48:53;;;;;;;13.95;7.65;;;28.30;68.70;;;;;;4170732;28;20053;-65
2022/01/08 09:50:58;;;;;;;14.45;8.32;;;28.30;68.50;;;;;;4170244;28;20063;-64
2022/01/08 09:53:02;;;;;;;14.75;8.07;;;28.30;67.70;;;;;;4173108;28;20238;-64
2022/01/08 09:55:07;;;;;;;16.02;8.05;;;28.30;68.10;;;;;;4171118;28;20431;-65
2022/01/08 09:57:11;;;;;;;14.20;8.35;;;28.30;68.20;;;;;;4172878;28;20537;-65
2022/01/08 09:59:16;;;;;;;17.90;8.07;;;28.20;68.10;;;;;;4177095;28;20033;-65
2022/01/08 10:01:32;;;;;;;16.70;8.65;;;28.20;68.60;;;;;;4175342;28;20610;-65
2022/01/08 10:03:36;;;;;;;13.82;7.93;;;28.20;68.80;;;;;;4177697;28;20079;-64
2022/01/08 10:05:46;;;;;;;18.33;9.00;;;28.20;68.70;;;;;;4178034;28;20048;-64
2022/01/08 10:08:12;;;;;;;16.30;8.50;;;28.20;70.20;;;;;;4176807;28;20047;-64
2022/01/08 10:10:20;;;;;;;18.45;8.98;;;28.20;69.50;;;;;;4178472;28;20124;-64
2022/01/08 10:12:39;;;;;;;12.68;7.95;;;28.10;69.80;;;;;;4176309;28;20065;-64
2022/01/08 10:17:13;;;;;;;13.80;7.72;;;28.10;69.50;;;;;;4175132;28;20551;-64
2022/01/08 10:17:15;;;;;;;14.32;8.65;;;28.10;70.20;;;;;;4175821;28;20466;-64
2022/01/08 10:19:24;;;;;;;15.95;8.68;;;28.10;70.60;;;;;;4178750;28;20045;-64
2022/01/08 10:21:34;;;;;;;15.68;8.73;;;28.10;70.80;;;;;;4178889;28;20051;-64
2022/01/08 10:23:39;;;;;;;17.05;8.82;;;28.10;70.90;;;;;;4172885;28;20049;-62
2022/01/08 10:26:01;;;;;;;17.42;9.30;;;28.00;71.30;;;;;;4174028;28;20060;-64
2022/01/08 10:28:05;;;;;;;31.15;10.45;;;28.00;72.40;;;;;;4178393;28;20049;-64
2022/01/08 10:30:22;;;;;;;24.77;9.25;;;27.90;71.30;;;;;;4178205;28;20076;-63
2022/01/08 10:32:27;;;;;;;17.30;9.68;;;27.90;72.00;;;;;;4192444;28;20048;-64
2022/01/08 10:34:32;;;;;;;18.00;10.38;;;27.90;72.80;;;;;;4178516;28;20068;-64
2022/01/08 10:36:45;;;;;;;36.78;11.68;;;27.80;73.20;;;;;;4178245;28;20045;-65
2022/01/08 10:38:55;;;;;;;21.75;11.00;;;27.80;73.70;;;;;;4177083;28;20068;-63
2022/01/08 10:41:00;;;;;;;24.58;10.93;;;27.70;74.00;;;;;;4178166;28;20287;-63
2022/01/08 10:43:27;;;;;;;33.78;12.30;;;27.70;74.20;;;;;;4178735;28;20079;-64
2022/01/08 10:45:36;;;;;;;29.67;10.98;;;27.70;74.60;;;;;;4177604;28;20495;-64
2022/01/08 10:47:41;;;;;;;67.20;22.52;;;27.60;75.40;;;;;;4168018;28;20052;-64
2022/01/08 10:49:47;;;;;;;63.55;23.33;;;27.60;74.90;;;;;;4174396;28;20087;-64
2022/01/08 10:51:54;;;;;;;62.28;22.38;;;27.60;75.40;;;;;;4164919;28;20504;-64
2022/01/08 10:54:10;;;;;;;42.03;17.58;;;27.60;75.60;;;;;;4164519;28;20056;-64
2022/01/08 10:56:36;;;;;;;35.80;17.33;;;27.50;75.90;;;;;;4171350;28;20511;-64
2022/01/08 10:58:42;;;;;;;47.78;18.77;;;27.40;76.00;;;;;;4177649;28;20041;-64
2022/01/08 11:00:47;;;;;;;72.80;19.77;;;27.40;76.30;;;;;;4177168;28;20333;-64
2022/01/08 11:02:51;;;;;;;56.28;18.98;;;27.40;76.60;;;;;;4177958;28;20044;-64
2022/01/08 11:04:56;;;;;;;50.92;22.73;;;27.30;76.70;;;;;;4176269;28;20044;-64
2022/01/08 11:07:21;;;;;;;66.13;25.35;;;27.30;77.00;;;;;;4177157;28;20087;-64
2022/01/08 11:09:27;;;;;;;58.20;25.42;;;27.30;77.70;;;;;;4176276;28;20053;-64
2022/01/08 11:11:32;;;;;;;56.50;26.92;;;27.30;78.20;;;;;;4177356;28;20465;-64